sensor_id;sensor_type;location;lat;lon;timestamp;P1;durP1;ratioP1;P2;durP2;ratioP2
65289;SDS011;51893;59.754;10.110;2022-09-24T00:02:13;5.90;;;4.60;;
65289;SDS011;51893;59.754;10.110;2022-09-24T00:04:41;5.70;;;5.00;;
65289;SDS011;51893;59.754;10.110;2022-09-24T00:07:09;9.80;;;6.00;;
65289;SDS011;51893;59.754;10.110;2022-09-24T00:09:37;4.40;;;4.00;;
65289;SDS011;51893;59.754;10.110;2022-09-24T00:12:05;6.90;;;5.10;;
65289;SDS011;51893;59.754;10.110;2022-09-24T00:14:33;8.90;;;6.50;;
65289;SDS011;51893;59.754;10.110;2022-09-24T00:17:01;10.30;;;5.80;;
65289;SDS011;51893;59.754;10.110;2022-09-24T00:19:29;12.60;;;6.30;;
65289;SDS011;51893;59.754;10.110;2022-09-24T00:21:57;9.60;;;6.70;;
65289;SDS011;51893;59.754;10.110;2022-09-24T00:24:25;12.40;;;7.20;;
65289;SDS011;51893;59.754;10.110;2022-09-24T00:27:12;8.20;;;6.70;;
65289;SDS011;51893;59.754;10.110;2022-09-24T00:29:40;6.40;;;4.30;;
65289;SDS011;51893;59.754;10.110;2022-09-24T00:32:10;9.50;;;7.10;;
65289;SDS011;51893;59.754;10.110;2022-09-24T00:34:38;12.10;;;7.20;;
65289;SDS011;51893;59.754;10.110;2022-09-24T00:37:06;9.80;;;6.90;;
65289;SDS011;51893;59.754;10.110;2022-09-24T00:39:34;9.10;;;7.20;;
65289;SDS011;51893;59.754;10.110;2022-09-24T00:42:02;10.70;;;6.80;;
65289;SDS011;51893;59.754;10.110;2022-09-24T00:44:47;11.20;;;6.30;;
65289;SDS011;51893;59.754;10.110;2022-09-24T00:47:33;9.10;;;5.80;;
65289;SDS011;51893;59.754;10.110;2022-09-24T00:53:09;11.40;;;6.80;;
65289;SDS011;51893;59.754;10.110;2022-09-24T00:55:43;10.70;;;6.20;;
65289;SDS011;51893;59.754;10.110;2022-09-24T00:58:14;9.90;;;7.20;;
65289;SDS011;51893;59.754;10.110;2022-09-24T01:00:42;4.30;;;3.30;;
65289;SDS011;51893;59.754;10.110;2022-09-24T01:03:15;6.70;;;5.30;;
65289;SDS011;51893;59.754;10.110;2022-09-24T01:05:47;8.40;;;6.20;;
65289;SDS011;51893;59.754;10.110;2022-09-24T01:08:17;8.60;;;5.60;;
65289;SDS011;51893;59.754;10.110;2022-09-24T01:14:06;9.00;;;5.40;;
65289;SDS011;51893;59.754;10.110;2022-09-24T01:25:49;3.10;;;2.70;;
65289;SDS011;51893;59.754;10.110;2022-09-24T01:32:00;2.40;;;2.20;;
65289;SDS011;51893;59.754;10.110;2022-09-24T01:34:56;4.40;;;3.10;;
65289;SDS011;51893;59.754;10.110;2022-09-24T01:37:32;4.90;;;2.90;;
65289;SDS011;51893;59.754;10.110;2022-09-24T01:40:04;3.50;;;3.10;;
65289;SDS011;51893;59.754;10.110;2022-09-24T01:42:36;3.50;;;3.20;;
65289;SDS011;51893;59.754;10.110;2022-09-24T01:45:10;2.60;;;2.40;;
65289;SDS011;51893;59.754;10.110;2022-09-24T01:47:40;2.80;;;2.60;;
65289;SDS011;51893;59.754;10.110;2022-09-24T01:50:11;3.10;;;2.80;;
65289;SDS011;51893;59.754;10.110;2022-09-24T01:55:36;2.10;;;1.90;;
65289;SDS011;51893;59.754;10.110;2022-09-24T01:58:15;2.10;;;2.00;;
65289;SDS011;51893;59.754;10.110;2022-09-24T02:00:52;2.20;;;2.00;;
65289;SDS011;51893;59.754;10.110;2022-09-24T02:03:26;2.30;;;2.10;;
65289;SDS011;51893;59.754;10.110;2022-09-24T02:06:07;2.40;;;2.20;;
65289;SDS011;51893;59.754;10.110;2022-09-24T02:08:45;2.30;;;1.90;;
65289;SDS011;51893;59.754;10.110;2022-09-24T02:11:18;4.40;;;1.90;;
65289;SDS011;51893;59.754;10.110;2022-09-24T02:13:54;2.30;;;2.10;;
65289;SDS011;51893;59.754;10.110;2022-09-24T02:16:34;2.80;;;2.50;;
65289;SDS011;51893;59.754;10.110;2022-09-24T02:19:10;3.20;;;2.10;;
65289;SDS011;51893;59.754;10.110;2022-09-24T02:21:47;2.60;;;1.90;;
65289;SDS011;51893;59.754;10.110;2022-09-24T02:24:21;2.70;;;2.50;;
65289;SDS011;51893;59.754;10.110;2022-09-24T02:27:03;2.90;;;2.20;;
65289;SDS011;51893;59.754;10.110;2022-09-24T02:29:31;2.60;;;2.40;;
65289;SDS011;51893;59.754;10.110;2022-09-24T02:32:00;2.80;;;2.60;;
65289;SDS011;51893;59.754;10.110;2022-09-24T02:34:40;2.60;;;2.40;;
65289;SDS011;51893;59.754;10.110;2022-09-24T02:37:15;4.20;;;2.50;;
65289;SDS011;51893;59.754;10.110;2022-09-24T02:39:43;4.10;;;2.40;;
65289;SDS011;51893;59.754;10.110;2022-09-24T02:42:12;2.90;;;2.70;;
65289;SDS011;51893;59.754;10.110;2022-09-24T02:44:42;3.30;;;3.00;;
65289;SDS011;51893;59.754;10.110;2022-09-24T02:47:10;3.20;;;2.40;;
65289;SDS011;51893;59.754;10.110;2022-09-24T02:49:38;2.50;;;2.30;;
65289;SDS011;51893;59.754;10.110;2022-09-24T02:52:06;3.20;;;2.90;;
65289;SDS011;51893;59.754;10.110;2022-09-24T02:54:34;3.40;;;3.00;;
65289;SDS011;51893;59.754;10.110;2022-09-24T02:57:02;3.90;;;2.70;;
65289;SDS011;51893;59.754;10.110;2022-09-24T02:59:30;3.20;;;2.90;;
65289;SDS011;51893;59.754;10.110;2022-09-24T03:01:58;2.60;;;2.20;;
65289;SDS011;51893;59.754;10.110;2022-09-24T03:04:27;2.50;;;2.30;;
65289;SDS011;51893;59.754;10.110;2022-09-24T03:06:57;2.40;;;2.00;;
65289;SDS011;51893;59.754;10.110;2022-09-24T03:09:26;5.70;;;3.00;;
65289;SDS011;51893;59.754;10.110;2022-09-24T03:11:54;3.20;;;3.00;;
65289;SDS011;51893;59.754;10.110;2022-09-24T03:14:24;2.80;;;2.50;;
65289;SDS011;51893;59.754;10.110;2022-09-24T03:16:52;3.20;;;2.80;;
65289;SDS011;51893;59.754;10.110;2022-09-24T03:19:20;3.00;;;2.50;;
65289;SDS011;51893;59.754;10.110;2022-09-24T03:21:48;4.20;;;2.90;;
65289;SDS011;51893;59.754;10.110;2022-09-24T03:24:16;3.40;;;2.80;;
65289;SDS011;51893;59.754;10.110;2022-09-24T03:26:44;3.80;;;2.80;;
65289;SDS011;51893;59.754;10.110;2022-09-24T03:29:12;3.40;;;3.10;;
65289;SDS011;51893;59.754;10.110;2022-09-24T03:31:40;4.70;;;2.80;;
65289;SDS011;51893;59.754;10.110;2022-09-24T03:34:10;3.30;;;3.00;;
65289;SDS011;51893;59.754;10.110;2022-09-24T03:36:38;4.60;;;2.80;;
65289;SDS011;51893;59.754;10.110;2022-09-24T03:39:07;3.10;;;2.20;;
65289;SDS011;51893;59.754;10.110;2022-09-24T03:41:35;4.50;;;3.00;;
65289;SDS011;51893;59.754;10.110;2022-09-24T03:44:04;3.30;;;3.00;;
65289;SDS011;51893;59.754;10.110;2022-09-24T03:46:32;3.70;;;3.00;;
65289;SDS011;51893;59.754;10.110;2022-09-24T03:49:00;6.40;;;2.60;;
65289;SDS011;51893;59.754;10.110;2022-09-24T03:51:28;3.50;;;3.20;;
65289;SDS011;51893;59.754;10.110;2022-09-24T03:53:56;3.40;;;2.70;;
65289;SDS011;51893;59.754;10.110;2022-09-24T03:56:23;3.60;;;3.10;;
65289;SDS011;51893;59.754;10.110;2022-09-24T03:58:51;2.60;;;2.30;;
65289;SDS011;51893;59.754;10.110;2022-09-24T04:01:19;4.10;;;2.60;;
65289;SDS011;51893;59.754;10.110;2022-09-24T04:03:49;1.90;;;1.70;;
65289;SDS011;51893;59.754;10.110;2022-09-24T04:06:17;3.50;;;2.70;;
65289;SDS011;51893;59.754;10.110;2022-09-24T04:08:52;3.40;;;3.10;;
65289;SDS011;51893;59.754;10.110;2022-09-24T04:11:21;2.50;;;2.30;;
65289;SDS011;51893;59.754;10.110;2022-09-24T04:13:51;4.40;;;3.20;;
65289;SDS011;51893;59.754;10.110;2022-09-24T04:16:19;5.50;;;2.80;;
65289;SDS011;51893;59.754;10.110;2022-09-24T04:18:47;3.00;;;2.60;;
65289;SDS011;51893;59.754;10.110;2022-09-24T04:21:17;1.80;;;1.50;;
65289;SDS011;51893;59.754;10.110;2022-09-24T04:23:45;3.30;;;2.10;;
65289;SDS011;51893;59.754;10.110;2022-09-24T04:26:12;5.10;;;2.60;;
65289;SDS011;51893;59.754;10.110;2022-09-24T04:28:41;3.20;;;2.80;;
65289;SDS011;51893;59.754;10.110;2022-09-24T04:31:09;2.50;;;2.30;;
65289;SDS011;51893;59.754;10.110;2022-09-24T04:33:39;2.10;;;1.90;;
65289;SDS011;51893;59.754;10.110;2022-09-24T04:36:07;4.70;;;2.20;;
65289;SDS011;51893;59.754;10.110;2022-09-24T04:38:35;2.40;;;2.20;;
65289;SDS011;51893;59.754;10.110;2022-09-24T04:41:06;3.70;;;2.00;;
65289;SDS011;51893;59.754;10.110;2022-09-24T04:43:35;3.20;;;2.20;;
65289;SDS011;51893;59.754;10.110;2022-09-24T04:46:04;5.30;;;1.40;;
65289;SDS011;51893;59.754;10.110;2022-09-24T04:48:36;2.20;;;2.00;;
65289;SDS011;51893;59.754;10.110;2022-09-24T04:51:06;1.80;;;1.70;;
65289;SDS011;51893;59.754;10.110;2022-09-24T04:53:35;2.80;;;2.40;;
65289;SDS011;51893;59.754;10.110;2022-09-24T04:56:05;2.40;;;2.20;;
65289;SDS011;51893;59.754;10.110;2022-09-24T04:58:38;3.30;;;2.80;;
65289;SDS011;51893;59.754;10.110;2022-09-24T05:01:06;4.00;;;2.30;;
65289;SDS011;51893;59.754;10.110;2022-09-24T05:03:34;1.70;;;1.60;;
65289;SDS011;51893;59.754;10.110;2022-09-24T05:06:02;2.60;;;2.20;;
65289;SDS011;51893;59.754;10.110;2022-09-24T05:08:30;3.40;;;2.30;;
65289;SDS011;51893;59.754;10.110;2022-09-24T05:10:58;2.30;;;1.90;;
65289;SDS011;51893;59.754;10.110;2022-09-24T05:13:27;8.30;;;2.60;;
65289;SDS011;51893;59.754;10.110;2022-09-24T05:15:54;3.10;;;1.90;;
65289;SDS011;51893;59.754;10.110;2022-09-24T05:18:22;3.10;;;2.50;;
65289;SDS011;51893;59.754;10.110;2022-09-24T05:20:50;2.20;;;2.00;;
65289;SDS011;51893;59.754;10.110;2022-09-24T05:23:18;4.50;;;2.00;;
65289;SDS011;51893;59.754;10.110;2022-09-24T05:25:47;2.50;;;2.10;;
65289;SDS011;51893;59.754;10.110;2022-09-24T05:28:33;2.70;;;2.20;;
65289;SDS011;51893;59.754;10.110;2022-09-24T05:31:01;2.70;;;2.20;;
65289;SDS011;51893;59.754;10.110;2022-09-24T05:33:30;2.50;;;1.90;;
65289;SDS011;51893;59.754;10.110;2022-09-24T05:35:57;4.30;;;1.60;;
65289;SDS011;51893;59.754;10.110;2022-09-24T05:38:25;5.00;;;2.50;;
65289;SDS011;51893;59.754;10.110;2022-09-24T05:40:54;5.10;;;2.20;;
65289;SDS011;51893;59.754;10.110;2022-09-24T05:43:22;3.00;;;2.00;;
65289;SDS011;51893;59.754;10.110;2022-09-24T05:45:54;8.40;;;2.30;;
65289;SDS011;51893;59.754;10.110;2022-09-24T05:48:24;3.60;;;2.50;;
65289;SDS011;51893;59.754;10.110;2022-09-24T05:50:52;3.10;;;2.20;;
65289;SDS011;51893;59.754;10.110;2022-09-24T05:53:23;4.20;;;2.00;;
65289;SDS011;51893;59.754;10.110;2022-09-24T05:55:51;2.70;;;2.00;;
65289;SDS011;51893;59.754;10.110;2022-09-24T05:58:19;1.50;;;1.40;;
65289;SDS011;51893;59.754;10.110;2022-09-24T06:00:47;3.50;;;2.20;;
65289;SDS011;51893;59.754;10.110;2022-09-24T06:03:18;2.10;;;2.00;;
65289;SDS011;51893;59.754;10.110;2022-09-24T06:05:49;3.30;;;2.80;;
65289;SDS011;51893;59.754;10.110;2022-09-24T06:08:19;3.40;;;2.30;;
65289;SDS011;51893;59.754;10.110;2022-09-24T06:10:47;4.60;;;2.50;;
65289;SDS011;51893;59.754;10.110;2022-09-24T06:13:17;3.90;;;2.60;;
65289;SDS011;51893;59.754;10.110;2022-09-24T06:15:48;3.90;;;2.80;;
65289;SDS011;51893;59.754;10.110;2022-09-24T06:18:16;3.20;;;2.00;;
65289;SDS011;51893;59.754;10.110;2022-09-24T06:20:45;8.00;;;2.80;;
65289;SDS011;51893;59.754;10.110;2022-09-24T06:23:13;4.30;;;2.70;;
65289;SDS011;51893;59.754;10.110;2022-09-24T06:25:41;2.30;;;2.10;;
65289;SDS011;51893;59.754;10.110;2022-09-24T06:28:09;3.10;;;2.40;;
65289;SDS011;51893;59.754;10.110;2022-09-24T06:30:38;2.60;;;2.40;;
65289;SDS011;51893;59.754;10.110;2022-09-24T06:33:08;3.30;;;2.20;;
65289;SDS011;51893;59.754;10.110;2022-09-24T06:35:40;3.50;;;2.30;;
65289;SDS011;51893;59.754;10.110;2022-09-24T06:38:10;2.00;;;1.80;;
65289;SDS011;51893;59.754;10.110;2022-09-24T06:40:41;3.80;;;2.10;;
65289;SDS011;51893;59.754;10.110;2022-09-24T06:43:13;4.20;;;1.70;;
65289;SDS011;51893;59.754;10.110;2022-09-24T06:45:41;3.30;;;1.80;;
65289;SDS011;51893;59.754;10.110;2022-09-24T06:48:11;2.80;;;1.60;;
65289;SDS011;51893;59.754;10.110;2022-09-24T06:50:42;1.60;;;1.50;;
65289;SDS011;51893;59.754;10.110;2022-09-24T06:53:12;2.80;;;1.60;;
65289;SDS011;51893;59.754;10.110;2022-09-24T06:55:41;2.20;;;1.90;;
65289;SDS011;51893;59.754;10.110;2022-09-24T06:58:11;1.20;;;1.10;;
65289;SDS011;51893;59.754;10.110;2022-09-24T07:00:42;1.40;;;1.30;;
65289;SDS011;51893;59.754;10.110;2022-09-24T07:03:16;3.70;;;1.60;;
65289;SDS011;51893;59.754;10.110;2022-09-24T07:05:51;4.80;;;2.10;;
65289;SDS011;51893;59.754;10.110;2022-09-24T07:08:19;1.70;;;1.60;;
65289;SDS011;51893;59.754;10.110;2022-09-24T07:10:48;3.20;;;1.30;;
65289;SDS011;51893;59.754;10.110;2022-09-24T07:13:17;3.40;;;1.40;;
65289;SDS011;51893;59.754;10.110;2022-09-24T07:15:50;2.90;;;1.10;;
65289;SDS011;51893;59.754;10.110;2022-09-24T07:18:20;3.60;;;1.30;;
65289;SDS011;51893;59.754;10.110;2022-09-24T07:20:53;1.30;;;0.90;;
65289;SDS011;51893;59.754;10.110;2022-09-24T07:23:22;2.60;;;1.20;;
65289;SDS011;51893;59.754;10.110;2022-09-24T07:25:54;1.20;;;1.10;;
65289;SDS011;51893;59.754;10.110;2022-09-24T07:28:24;0.80;;;0.80;;
65289;SDS011;51893;59.754;10.110;2022-09-24T07:30:56;1.20;;;1.10;;
65289;SDS011;51893;59.754;10.110;2022-09-24T07:33:26;1.50;;;1.20;;
65289;SDS011;51893;59.754;10.110;2022-09-24T07:35:54;1.00;;;1.00;;
65289;SDS011;51893;59.754;10.110;2022-09-24T07:38:22;1.50;;;1.00;;
65289;SDS011;51893;59.754;10.110;2022-09-24T07:40:49;3.70;;;1.50;;
65289;SDS011;51893;59.754;10.110;2022-09-24T07:43:20;2.60;;;1.30;;
65289;SDS011;51893;59.754;10.110;2022-09-24T07:45:48;3.00;;;1.20;;
65289;SDS011;51893;59.754;10.110;2022-09-24T07:48:16;2.00;;;1.30;;
65289;SDS011;51893;59.754;10.110;2022-09-24T07:50:44;2.40;;;1.30;;
65289;SDS011;51893;59.754;10.110;2022-09-24T07:53:12;4.40;;;1.70;;
65289;SDS011;51893;59.754;10.110;2022-09-24T07:55:40;3.50;;;1.40;;
65289;SDS011;51893;59.754;10.110;2022-09-24T07:58:11;1.40;;;1.20;;
65289;SDS011;51893;59.754;10.110;2022-09-24T08:00:41;2.90;;;1.30;;
65289;SDS011;51893;59.754;10.110;2022-09-24T08:03:09;5.60;;;1.70;;
65289;SDS011;51893;59.754;10.110;2022-09-24T08:05:44;1.60;;;1.40;;
65289;SDS011;51893;59.754;10.110;2022-09-24T08:08:13;6.10;;;2.00;;
65289;SDS011;51893;59.754;10.110;2022-09-24T08:10:42;3.80;;;1.50;;
65289;SDS011;51893;59.754;10.110;2022-09-24T08:13:10;1.00;;;1.00;;
65289;SDS011;51893;59.754;10.110;2022-09-24T08:15:39;1.70;;;1.60;;
65289;SDS011;51893;59.754;10.110;2022-09-24T08:18:08;4.00;;;1.50;;
65289;SDS011;51893;59.754;10.110;2022-09-24T08:20:37;3.00;;;1.80;;
65289;SDS011;51893;59.754;10.110;2022-09-24T08:23:07;3.50;;;1.70;;
65289;SDS011;51893;59.754;10.110;2022-09-24T08:25:39;2.50;;;1.30;;
65289;SDS011;51893;59.754;10.110;2022-09-24T08:28:07;2.40;;;1.20;;
65289;SDS011;51893;59.754;10.110;2022-09-24T08:30:38;6.50;;;1.40;;
65289;SDS011;51893;59.754;10.110;2022-09-24T08:33:08;3.40;;;1.30;;
65289;SDS011;51893;59.754;10.110;2022-09-24T08:35:37;1.70;;;1.40;;
65289;SDS011;51893;59.754;10.110;2022-09-24T08:38:08;3.50;;;1.40;;
65289;SDS011;51893;59.754;10.110;2022-09-24T08:40:45;2.40;;;1.30;;
65289;SDS011;51893;59.754;10.110;2022-09-24T08:46:38;1.40;;;1.20;;
65289;SDS011;51893;59.754;10.110;2022-09-24T08:49:43;2.60;;;1.90;;
65289;SDS011;51893;59.754;10.110;2022-09-24T08:52:34;3.90;;;1.50;;
65289;SDS011;51893;59.754;10.110;2022-09-24T09:01:05;2.40;;;1.70;;
65289;SDS011;51893;59.754;10.110;2022-09-24T09:03:44;2.00;;;1.30;;
65289;SDS011;51893;59.754;10.110;2022-09-24T09:09:17;3.30;;;1.10;;
65289;SDS011;51893;59.754;10.110;2022-09-24T09:11:51;2.50;;;1.20;;
65289;SDS011;51893;59.754;10.110;2022-09-24T09:14:42;3.00;;;1.90;;
65289;SDS011;51893;59.754;10.110;2022-09-24T09:17:36;3.60;;;2.20;;
65289;SDS011;51893;59.754;10.110;2022-09-24T09:20:19;2.00;;;1.30;;
65289;SDS011;51893;59.754;10.110;2022-09-24T09:23:20;5.00;;;1.40;;
65289;SDS011;51893;59.754;10.110;2022-09-24T09:25:57;1.40;;;1.20;;
65289;SDS011;51893;59.754;10.110;2022-09-24T09:28:27;3.60;;;1.30;;
65289;SDS011;51893;59.754;10.110;2022-09-24T09:33:42;2.00;;;1.30;;
65289;SDS011;51893;59.754;10.110;2022-09-24T09:36:42;2.30;;;1.50;;
65289;SDS011;51893;59.754;10.110;2022-09-24T09:39:37;4.10;;;1.40;;
65289;SDS011;51893;59.754;10.110;2022-09-24T09:48:02;2.00;;;1.20;;
65289;SDS011;51893;59.754;10.110;2022-09-24T09:51:00;2.00;;;1.20;;
65289;SDS011;51893;59.754;10.110;2022-09-24T09:53:31;1.40;;;1.30;;
65289;SDS011;51893;59.754;10.110;2022-09-24T09:56:05;1.30;;;1.10;;
65289;SDS011;51893;59.754;10.110;2022-09-24T09:58:40;5.80;;;1.10;;
65289;SDS011;51893;59.754;10.110;2022-09-24T10:01:15;4.00;;;1.30;;
65289;SDS011;51893;59.754;10.110;2022-09-24T10:06:28;3.50;;;1.20;;
65289;SDS011;51893;59.754;10.110;2022-09-24T10:09:16;4.80;;;1.10;;
65289;SDS011;51893;59.754;10.110;2022-09-24T10:11:48;1.50;;;1.10;;
65289;SDS011;51893;59.754;10.110;2022-09-24T10:14:18;3.80;;;1.30;;
65289;SDS011;51893;59.754;10.110;2022-09-24T10:16:52;2.00;;;1.10;;
65289;SDS011;51893;59.754;10.110;2022-09-24T10:19:24;4.60;;;1.10;;
65289;SDS011;51893;59.754;10.110;2022-09-24T10:21:55;1.50;;;1.30;;
65289;SDS011;51893;59.754;10.110;2022-09-24T10:24:27;1.20;;;1.10;;
65289;SDS011;51893;59.754;10.110;2022-09-24T10:26:56;3.80;;;1.00;;
65289;SDS011;51893;59.754;10.110;2022-09-24T10:29:29;4.50;;;0.90;;
65289;SDS011;51893;59.754;10.110;2022-09-24T10:32:21;2.80;;;0.70;;
65289;SDS011;51893;59.754;10.110;2022-09-24T10:35:00;3.10;;;0.70;;
65289;SDS011;51893;59.754;10.110;2022-09-24T10:37:29;1.20;;;0.50;;
65289;SDS011;51893;59.754;10.110;2022-09-24T10:40:07;2.10;;;0.80;;
65289;SDS011;51893;59.754;10.110;2022-09-24T10:42:40;1.50;;;0.80;;
65289;SDS011;51893;59.754;10.110;2022-09-24T10:45:12;0.90;;;0.70;;
65289;SDS011;51893;59.754;10.110;2022-09-24T10:48:15;1.30;;;0.80;;
65289;SDS011;51893;59.754;10.110;2022-09-24T10:50:59;1.20;;;0.70;;
65289;SDS011;51893;59.754;10.110;2022-09-24T10:59:29;0.80;;;0.60;;
65289;SDS011;51893;59.754;10.110;2022-09-24T11:11:08;0.60;;;0.60;;
65289;SDS011;51893;59.754;10.110;2022-09-24T11:20:47;0.70;;;0.60;;
65289;SDS011;51893;59.754;10.110;2022-09-24T11:29:25;0.50;;;0.50;;
65289;SDS011;51893;59.754;10.110;2022-09-24T11:52:01;0.40;;;0.30;;
65289;SDS011;51893;59.754;10.110;2022-09-24T11:55:12;3.50;;;0.50;;
65289;SDS011;51893;59.754;10.110;2022-09-24T11:58:11;2.30;;;0.50;;
65289;SDS011;51893;59.754;10.110;2022-09-24T12:01:19;3.00;;;0.40;;
65289;SDS011;51893;59.754;10.110;2022-09-24T12:03:54;1.00;;;0.60;;
65289;SDS011;51893;59.754;10.110;2022-09-24T12:09:42;0.70;;;0.40;;
65289;SDS011;51893;59.754;10.110;2022-09-24T12:12:20;2.40;;;0.60;;
65289;SDS011;51893;59.754;10.110;2022-09-24T12:14:58;1.60;;;0.40;;
65289;SDS011;51893;59.754;10.110;2022-09-24T12:17:40;1.00;;;0.40;;
65289;SDS011;51893;59.754;10.110;2022-09-24T12:20:25;0.40;;;0.30;;
65289;SDS011;51893;59.754;10.110;2022-09-24T12:23:08;0.40;;;0.30;;
65289;SDS011;51893;59.754;10.110;2022-09-24T12:25:43;1.30;;;0.40;;
65289;SDS011;51893;59.754;10.110;2022-09-24T12:28:14;3.40;;;0.30;;
65289;SDS011;51893;59.754;10.110;2022-09-24T12:37:36;4.40;;;0.30;;
65289;SDS011;51893;59.754;10.110;2022-09-24T12:40:20;0.20;;;0.20;;
65289;SDS011;51893;59.754;10.110;2022-09-24T12:43:20;3.10;;;0.50;;
65289;SDS011;51893;59.754;10.110;2022-09-24T12:46:03;2.50;;;2.10;;
65289;SDS011;51893;59.754;10.110;2022-09-24T12:48:36;3.10;;;1.60;;
65289;SDS011;51893;59.754;10.110;2022-09-24T12:51:06;1.60;;;1.00;;
65289;SDS011;51893;59.754;10.110;2022-09-24T12:53:41;1.70;;;0.60;;
65289;SDS011;51893;59.754;10.110;2022-09-24T12:56:28;0.50;;;0.40;;
65289;SDS011;51893;59.754;10.110;2022-09-24T12:58:57;1.20;;;0.40;;
65289;SDS011;51893;59.754;10.110;2022-09-24T13:01:30;0.30;;;0.30;;
65289;SDS011;51893;59.754;10.110;2022-09-24T13:06:44;0.50;;;0.50;;
65289;SDS011;51893;59.754;10.110;2022-09-24T13:09:25;2.40;;;0.30;;
65289;SDS011;51893;59.754;10.110;2022-09-24T13:12:21;0.30;;;0.30;;
65289;SDS011;51893;59.754;10.110;2022-09-24T13:15:01;0.90;;;0.70;;
65289;SDS011;51893;59.754;10.110;2022-09-24T13:17:35;1.10;;;0.50;;
65289;SDS011;51893;59.754;10.110;2022-09-24T13:20:17;2.80;;;0.50;;
65289;SDS011;51893;59.754;10.110;2022-09-24T13:22:56;0.80;;;0.40;;
65289;SDS011;51893;59.754;10.110;2022-09-24T13:25:26;2.80;;;0.60;;
65289;SDS011;51893;59.754;10.110;2022-09-24T13:28:03;0.80;;;0.40;;
65289;SDS011;51893;59.754;10.110;2022-09-24T13:31:21;1.00;;;0.50;;
65289;SDS011;51893;59.754;10.110;2022-09-24T13:33:59;0.50;;;0.50;;
65289;SDS011;51893;59.754;10.110;2022-09-24T13:39:21;4.20;;;1.60;;
65289;SDS011;51893;59.754;10.110;2022-09-24T13:44:38;1.30;;;0.60;;
65289;SDS011;51893;59.754;10.110;2022-09-24T13:49:44;0.60;;;0.40;;
65289;SDS011;51893;59.754;10.110;2022-09-24T13:55:27;0.20;;;0.20;;
65289;SDS011;51893;59.754;10.110;2022-09-24T13:58:25;0.30;;;0.30;;
65289;SDS011;51893;59.754;10.110;2022-09-24T14:00:57;0.90;;;0.40;;
65289;SDS011;51893;59.754;10.110;2022-09-24T14:03:38;7.50;;;4.70;;
65289;SDS011;51893;59.754;10.110;2022-09-24T14:06:12;1.40;;;0.90;;
65289;SDS011;51893;59.754;10.110;2022-09-24T14:08:45;8.30;;;4.40;;
65289;SDS011;51893;59.754;10.110;2022-09-24T14:11:21;3.30;;;2.10;;
65289;SDS011;51893;59.754;10.110;2022-09-24T14:13:54;1.80;;;0.50;;
65289;SDS011;51893;59.754;10.110;2022-09-24T14:16:25;1.40;;;0.40;;
65289;SDS011;51893;59.754;10.110;2022-09-24T14:19:01;2.20;;;0.60;;
65289;SDS011;51893;59.754;10.110;2022-09-24T14:21:38;3.20;;;0.60;;
65289;SDS011;51893;59.754;10.110;2022-09-24T14:24:30;1.50;;;0.50;;
65289;SDS011;51893;59.754;10.110;2022-09-24T14:27:14;0.50;;;0.20;;
65289;SDS011;51893;59.754;10.110;2022-09-24T14:30:03;0.60;;;0.30;;
65289;SDS011;51893;59.754;10.110;2022-09-24T14:32:43;1.10;;;0.30;;
65289;SDS011;51893;59.754;10.110;2022-09-24T14:35:18;0.40;;;0.30;;
65289;SDS011;51893;59.754;10.110;2022-09-24T14:40:43;0.20;;;0.20;;
65289;SDS011;51893;59.754;10.110;2022-09-24T14:43:30;0.20;;;0.20;;
65289;SDS011;51893;59.754;10.110;2022-09-24T14:46:17;0.40;;;0.20;;
65289;SDS011;51893;59.754;10.110;2022-09-24T14:48:50;2.10;;;0.40;;
65289;SDS011;51893;59.754;10.110;2022-09-24T14:51:27;2.40;;;0.90;;
65289;SDS011;51893;59.754;10.110;2022-09-24T14:54:19;1.40;;;0.60;;
65289;SDS011;51893;59.754;10.110;2022-09-24T14:57:11;2.30;;;1.20;;
65289;SDS011;51893;59.754;10.110;2022-09-24T14:59:47;1.00;;;0.70;;
65289;SDS011;51893;59.754;10.110;2022-09-24T15:02:51;2.80;;;0.30;;
65289;SDS011;51893;59.754;10.110;2022-09-24T15:05:15;1.90;;;0.40;;
65289;SDS011;51893;59.754;10.110;2022-09-24T15:07:45;4.00;;;0.50;;
65289;SDS011;51893;59.754;10.110;2022-09-24T15:10:19;0.30;;;0.30;;
65289;SDS011;51893;59.754;10.110;2022-09-24T15:12:49;1.30;;;0.50;;
65289;SDS011;51893;59.754;10.110;2022-09-24T15:17:56;0.60;;;0.40;;
65289;SDS011;51893;59.754;10.110;2022-09-24T15:20:24;0.90;;;0.40;;
65289;SDS011;51893;59.754;10.110;2022-09-24T15:22:52;1.00;;;0.40;;
65289;SDS011;51893;59.754;10.110;2022-09-24T15:25:20;2.00;;;0.50;;
65289;SDS011;51893;59.754;10.110;2022-09-24T15:27:48;1.00;;;0.40;;
65289;SDS011;51893;59.754;10.110;2022-09-24T15:30:21;1.80;;;0.30;;
65289;SDS011;51893;59.754;10.110;2022-09-24T15:32:51;0.40;;;0.30;;
65289;SDS011;51893;59.754;10.110;2022-09-24T15:35:22;0.60;;;0.40;;
65289;SDS011;51893;59.754;10.110;2022-09-24T15:37:51;3.10;;;0.40;;
65289;SDS011;51893;59.754;10.110;2022-09-24T15:40:21;1.40;;;0.40;;
65289;SDS011;51893;59.754;10.110;2022-09-24T15:42:52;1.00;;;0.50;;
65289;SDS011;51893;59.754;10.110;2022-09-24T15:45:22;0.50;;;0.40;;
65289;SDS011;51893;59.754;10.110;2022-09-24T15:47:52;1.60;;;0.50;;
65289;SDS011;51893;59.754;10.110;2022-09-24T15:50:21;2.20;;;0.50;;
65289;SDS011;51893;59.754;10.110;2022-09-24T15:52:57;0.90;;;0.40;;
65289;SDS011;51893;59.754;10.110;2022-09-24T15:55:29;1.20;;;0.50;;
65289;SDS011;51893;59.754;10.110;2022-09-24T15:57:58;1.20;;;0.40;;
65289;SDS011;51893;59.754;10.110;2022-09-24T16:00:26;4.80;;;0.40;;
65289;SDS011;51893;59.754;10.110;2022-09-24T16:02:56;3.20;;;0.70;;
65289;SDS011;51893;59.754;10.110;2022-09-24T17:18:35;7.90;;;3.20;;
65289;SDS011;51893;59.754;10.110;2022-09-24T17:21:06;3.90;;;1.20;;
65289;SDS011;51893;59.754;10.110;2022-09-24T17:23:35;3.00;;;1.10;;
65289;SDS011;51893;59.754;10.110;2022-09-24T17:26:09;4.40;;;2.00;;
65289;SDS011;51893;59.754;10.110;2022-09-24T17:28:40;8.90;;;3.70;;
65289;SDS011;51893;59.754;10.110;2022-09-24T17:31:13;13.10;;;3.00;;
65289;SDS011;51893;59.754;10.110;2022-09-24T17:33:43;6.70;;;3.40;;
65289;SDS011;51893;59.754;10.110;2022-09-24T17:36:12;5.30;;;2.60;;
65289;SDS011;51893;59.754;10.110;2022-09-24T17:38:42;5.80;;;3.70;;
65289;SDS011;51893;59.754;10.110;2022-09-24T17:41:11;12.00;;;4.30;;
65289;SDS011;51893;59.754;10.110;2022-09-24T17:43:40;7.50;;;3.50;;
65289;SDS011;51893;59.754;10.110;2022-09-24T17:46:13;6.10;;;3.60;;
65289;SDS011;51893;59.754;10.110;2022-09-24T17:48:50;6.20;;;3.10;;
65289;SDS011;51893;59.754;10.110;2022-09-24T17:51:23;5.80;;;1.40;;
65289;SDS011;51893;59.754;10.110;2022-09-24T17:53:54;7.20;;;1.90;;
65289;SDS011;51893;59.754;10.110;2022-09-24T17:56:24;9.10;;;3.00;;
65289;SDS011;51893;59.754;10.110;2022-09-24T17:58:54;8.40;;;3.10;;
65289;SDS011;51893;59.754;10.110;2022-09-24T18:01:29;4.90;;;3.00;;
65289;SDS011;51893;59.754;10.110;2022-09-24T18:04:08;8.90;;;2.90;;
65289;SDS011;51893;59.754;10.110;2022-09-24T18:06:42;11.30;;;3.30;;
65289;SDS011;51893;59.754;10.110;2022-09-24T18:09:12;7.10;;;2.60;;
65289;SDS011;51893;59.754;10.110;2022-09-24T18:11:47;3.30;;;2.50;;
65289;SDS011;51893;59.754;10.110;2022-09-24T18:14:20;8.50;;;5.00;;
65289;SDS011;51893;59.754;10.110;2022-09-24T18:16:49;9.60;;;4.80;;
65289;SDS011;51893;59.754;10.110;2022-09-24T18:19:18;5.80;;;4.30;;
65289;SDS011;51893;59.754;10.110;2022-09-24T18:21:46;7.20;;;4.40;;
65289;SDS011;51893;59.754;10.110;2022-09-24T18:24:16;5.90;;;2.50;;
65289;SDS011;51893;59.754;10.110;2022-09-24T18:26:43;4.30;;;2.20;;